Time;durP1;ratioP1;P1;durP2;ratioP2;P2;SDS_P1;SDS_P2;PMS_P1;PMS_P2;Temp;Humidity;BMP_temperature;BMP_pressure;BME280_temperature;BME280_humidity;BME280_pressure;Samples;Min_cycle;Max_cycle;Signal;HPM_P1;HPM_P2
2022/04/10 00:00:54;;;;;;;2.33;2.20;;;3.40;99.90;;;;;;5053036;28;20544;-68
2022/04/10 00:03:21;;;;;;;0.30;0.30;;;3.40;99.90;;;;;;5053123;28;20806;-68
2022/04/10 00:05:47;;;;;;;0.40;0.40;;;3.40;99.90;;;;;;5053509;28;20178;-67
2022/04/10 00:08:13;;;;;;;0.40;0.40;;;3.50;99.90;;;;;;5053024;28;20190;-68
2022/04/10 00:10:38;;;;;;;0.40;0.40;;;3.50;99.90;;;;;;5053070;28;20252;-68
2022/04/10 00:13:04;;;;;;;0.37;0.37;;;3.40;99.90;;;;;;5053247;28;20501;-68
2022/04/10 00:15:30;;;;;;;0.40;0.40;;;3.40;99.90;;;;;;5053201;28;20174;-68
2022/04/10 00:17:55;;;;;;;0.40;0.40;;;3.10;99.90;;;;;;5053116;28;20198;-67
2022/04/10 00:20:21;;;;;;;0.40;0.40;;;3.00;99.90;;;;;;5052790;28;20181;-67
2022/04/10 00:22:48;;;;;;;0.33;0.33;;;2.80;99.90;;;;;;5052962;28;20562;-68
2022/04/10 00:25:17;;;;;;;0.40;0.40;;;2.80;99.90;;;;;;5053011;28;20548;-67
2022/04/10 00:27:43;;;;;;;0.40;0.40;;;2.60;99.90;;;;;;5052844;28;20288;-68
2022/04/10 00:30:11;;;;;;;0.40;0.40;;;2.60;99.90;;;;;;5052698;28;20176;-67
2022/04/10 00:32:37;;;;;;;0.35;0.35;;;2.60;99.90;;;;;;5053251;28;20581;-67
2022/04/10 00:35:07;;;;;;;0.32;0.32;;;2.50;99.90;;;;;;5052900;28;20197;-68
2022/04/10 00:37:34;;;;;;;0.30;0.30;;;2.40;99.90;;;;;;5053901;28;20246;-68
2022/04/10 00:40:00;;;;;;;0.30;0.30;;;2.40;99.90;;;;;;5055249;28;20633;-67
2022/04/10 00:42:32;;;;;;;0.40;0.40;;;2.30;99.90;;;;;;5056648;28;20238;-68
2022/04/10 00:44:59;;;;;;;0.40;0.40;;;2.40;99.90;;;;;;5056805;28;20205;-68
2022/04/10 00:47:24;;;;;;;0.40;0.40;;;2.30;99.90;;;;;;5056495;28;20186;-68
2022/04/10 00:49:51;;;;;;;0.30;0.30;;;2.30;99.90;;;;;;5055072;28;20193;-68
2022/04/10 00:52:18;;;;;;;0.40;0.40;;;2.30;99.90;;;;;;5056528;28;20573;-68
2022/04/10 00:54:44;;;;;;;0.32;0.32;;;2.30;99.90;;;;;;5056454;28;20178;-68
2022/04/10 00:57:11;;;;;;;0.40;0.40;;;2.40;99.90;;;;;;5056219;28;20262;-68
2022/04/10 00:59:37;;;;;;;0.30;0.30;;;2.40;99.90;;;;;;5056401;28;20415;-68
2022/04/10 01:02:03;;;;;;;0.30;0.30;;;2.40;99.90;;;;;;5056105;28;20626;-68
2022/04/10 01:04:29;;;;;;;0.40;0.40;;;2.50;99.90;;;;;;5054869;28;20259;-67
2022/04/10 01:06:56;;;;;;;0.30;0.30;;;2.50;99.90;;;;;;5056134;28;20194;-68
2022/04/10 01:09:23;;;;;;;0.40;0.40;;;2.50;99.90;;;;;;5055954;28;20163;-67
2022/04/10 01:11:51;;;;;;;0.40;0.40;;;2.50;99.90;;;;;;5055832;28;20169;-68
2022/04/10 01:14:17;;;;;;;0.40;0.40;;;2.40;99.90;;;;;;5056210;28;20280;-68
2022/04/10 01:16:43;;;;;;;0.37;0.37;;;2.40;99.90;;;;;;5055994;28;20213;-67
2022/04/10 01:19:09;;;;;;;0.40;0.40;;;2.30;99.90;;;;;;5055950;28;20166;-67
2022/04/10 01:21:46;;;;;;;0.37;0.37;;;2.10;99.90;;;;;;5054243;28;20188;-67
2022/04/10 01:24:13;;;;;;;0.40;0.40;;;2.00;99.90;;;;;;5055811;28;20928;-68
2022/04/10 01:26:40;;;;;;;0.30;0.30;;;1.90;99.90;;;;;;5055604;28;20203;-67
2022/04/10 01:29:11;;;;;;;0.40;0.40;;;1.80;99.90;;;;;;5055732;28;20165;-68
2022/04/10 01:31:39;;;;;;;0.40;0.40;;;1.80;99.90;;;;;;5055524;28;20644;-68
2022/04/10 01:34:07;;;;;;;0.40;0.40;;;1.80;99.90;;;;;;5055843;28;20195;-68
2022/04/10 01:36:35;;;;;;;0.40;0.40;;;1.90;99.90;;;;;;5055575;28;20203;-68
2022/04/10 01:39:03;;;;;;;0.40;0.40;;;1.90;99.90;;;;;;5055655;28;20179;-67
2022/04/10 01:41:30;;;;;;;0.40;0.40;;;1.90;99.90;;;;;;5055286;28;20181;-68
2022/04/10 01:43:57;;;;;;;0.40;0.40;;;1.90;99.90;;;;;;5055652;28;20192;-68
2022/04/10 01:46:25;;;;;;;0.40;0.40;;;2.00;99.90;;;;;;5055349;28;20192;-67
2022/04/10 01:48:51;;;;;;;0.40;0.40;;;2.00;99.90;;;;;;5054917;28;20173;-68
2022/04/10 01:51:16;;;;;;;0.40;0.40;;;2.00;99.90;;;;;;5054867;28;20181;-68
2022/04/10 01:53:42;;;;;;;0.60;0.60;;;2.00;99.90;;;;;;5055403;28;20256;-67
2022/04/10 01:56:09;;;;;;;0.35;0.35;;;1.80;99.90;;;;;;5055264;28;20182;-67
2022/04/10 01:58:38;;;;;;;0.40;0.40;;;1.80;99.90;;;;;;5055311;28;20173;-67
2022/04/10 02:01:05;;;;;;;0.38;0.38;;;1.80;99.90;;;;;;5054973;28;20199;-68
2022/04/10 02:03:30;;;;;;;0.38;0.38;;;1.80;99.90;;;;;;5055039;28;20183;-68
2022/04/10 02:05:56;;;;;;;0.30;0.30;;;1.80;99.90;;;;;;5054871;28;20173;-67
2022/04/10 02:08:22;;;;;;;0.40;0.40;;;1.90;99.90;;;;;;5054890;28;20196;-68
2022/04/10 02:10:48;;;;;;;0.40;0.40;;;1.90;99.90;;;;;;5054723;28;20202;-67
2022/04/10 02:13:13;;;;;;;0.40;0.40;;;2.00;99.90;;;;;;5054908;28;20789;-69
2022/04/10 02:15:40;;;;;;;0.40;0.40;;;1.90;99.90;;;;;;5054900;28;20208;-68
2022/04/10 02:18:06;;;;;;;0.40;0.40;;;1.70;99.90;;;;;;5054640;28;20218;-68
2022/04/10 02:20:32;;;;;;;0.30;0.30;;;1.70;99.90;;;;;;5054490;28;20179;-68
2022/04/10 02:22:58;;;;;;;0.30;0.30;;;1.70;99.90;;;;;;5054563;28;20194;-68
2022/04/10 02:25:23;;;;;;;0.40;0.40;;;1.60;99.90;;;;;;5054590;28;20200;-67
2022/04/10 02:27:50;;;;;;;0.30;0.30;;;1.60;99.90;;;;;;5054416;28;20191;-68
2022/04/10 02:30:16;;;;;;;0.30;0.30;;;1.50;99.90;;;;;;5054386;28;20242;-68
2022/04/10 02:32:42;;;;;;;0.30;0.30;;;1.60;99.90;;;;;;5053231;28;20656;-68
2022/04/10 02:35:08;;;;;;;0.30;0.30;;;1.60;99.90;;;;;;5054302;28;20197;-68
2022/04/10 02:37:35;;;;;;;0.30;0.30;;;1.50;99.90;;;;;;5053033;28;20291;-68
2022/04/10 02:40:04;;;;;;;0.30;0.30;;;1.50;99.90;;;;;;5054121;28;20170;-67
2022/04/10 02:42:33;;;;;;;0.30;0.30;;;1.50;99.90;;;;;;5054229;28;20174;-67
2022/04/10 02:44:59;;;;;;;0.30;0.30;;;1.40;99.90;;;;;;5054240;28;20556;-68
2022/04/10 02:47:25;;;;;;;0.40;0.40;;;1.40;99.90;;;;;;5054138;28;20191;-68
2022/04/10 02:49:51;;;;;;;0.32;0.32;;;1.40;99.90;;;;;;5053888;28;20600;-67
2022/04/10 02:52:17;;;;;;;0.30;0.30;;;1.40;99.90;;;;;;5054116;28;20179;-68
2022/04/10 02:54:44;;;;;;;0.40;0.40;;;1.40;99.90;;;;;;5054109;28;20779;-68
2022/04/10 02:57:10;;;;;;;0.40;0.40;;;1.40;99.90;;;;;;5053843;28;20194;-68
2022/04/10 02:59:37;;;;;;;0.40;0.40;;;1.20;99.90;;;;;;5054156;28;20571;-67
2022/04/10 03:02:02;;;;;;;0.30;0.30;;;1.20;99.90;;;;;;5053022;28;20180;-67
2022/04/10 03:04:28;;;;;;;0.30;0.30;;;0.90;99.90;;;;;;5053963;28;20204;-67
2022/04/10 03:06:54;;;;;;;0.30;0.30;;;1.00;99.90;;;;;;5053762;28;20597;-67
2022/04/10 03:09:19;;;;;;;0.30;0.30;;;1.10;99.90;;;;;;5053608;28;20167;-68
2022/04/10 03:11:45;;;;;;;0.40;0.40;;;1.10;99.90;;;;;;5052489;28;20528;-68
2022/04/10 03:14:11;;;;;;;0.33;0.33;;;1.10;99.90;;;;;;5053904;28;20182;-68
2022/04/10 03:16:36;;;;;;;0.40;0.40;;;1.20;99.90;;;;;;5053711;28;20615;-67
2022/04/10 03:19:03;;;;;;;0.40;0.40;;;1.10;99.90;;;;;;5053837;28;20167;-67
2022/04/10 03:21:28;;;;;;;0.30;0.30;;;1.10;99.90;;;;;;5053340;28;20253;-67
2022/04/10 03:23:54;;;;;;;0.30;0.30;;;1.20;99.90;;;;;;5053740;28;20281;-68
2022/04/10 03:26:20;;;;;;;0.30;0.30;;;1.10;99.90;;;;;;5053593;28;20176;-67
2022/04/10 03:28:46;;;;;;;0.37;0.37;;;1.10;99.90;;;;;;5053633;28;20173;-67
2022/04/10 03:31:11;;;;;;;0.40;0.40;;;1.00;99.90;;;;;;5053245;28;20554;-68
2022/04/10 03:33:37;;;;;;;0.40;0.40;;;0.90;99.90;;;;;;5053436;28;20167;-67
2022/04/10 03:36:03;;;;;;;0.30;0.30;;;1.10;99.90;;;;;;5053547;28;20162;-67
2022/04/10 03:38:28;;;;;;;0.33;0.33;;;1.00;99.90;;;;;;5053506;28;20240;-67
2022/04/10 03:40:54;;;;;;;0.40;0.40;;;1.00;99.90;;;;;;5053164;28;20490;-67
2022/04/10 03:43:19;;;;;;;0.30;0.30;;;1.10;99.90;;;;;;5053536;28;20590;-67
2022/04/10 03:45:45;;;;;;;0.30;0.30;;;1.00;99.90;;;;;;5053393;28;20281;-68
2022/04/10 03:48:11;;;;;;;0.40;0.40;;;1.10;99.90;;;;;;5052960;28;20278;-67
2022/04/10 03:50:36;;;;;;;0.40;0.40;;;1.10;99.90;;;;;;5053472;28;20665;-68
2022/04/10 03:53:04;;;;;;;0.30;0.30;;;1.00;99.90;;;;;;5053461;28;20167;-67
2022/04/10 03:55:32;;;;;;;0.40;0.40;;;1.10;99.90;;;;;;5053359;28;20545;-66
2022/04/10 03:57:58;;;;;;;0.30;0.30;;;1.00;99.90;;;;;;5053113;28;20200;-67
2022/04/10 04:00:24;;;;;;;0.40;0.40;;;1.00;99.90;;;;;;5053006;28;20174;-67
2022/04/10 04:02:50;;;;;;;0.40;0.40;;;1.10;99.90;;;;;;5053141;28;20639;-68
2022/04/10 04:05:16;;;;;;;0.30;0.30;;;1.00;99.90;;;;;;5053166;28;20223;-68
2022/04/10 04:07:42;;;;;;;0.30;0.30;;;1.10;99.90;;;;;;5053066;28;20183;-68
2022/04/10 04:10:08;;;;;;;0.30;0.30;;;1.00;99.90;;;;;;5053082;28;20162;-68
2022/04/10 04:12:34;;;;;;;0.38;0.38;;;1.00;99.90;;;;;;5054194;28;20654;-67
2022/04/10 04:15:00;;;;;;;0.30;0.30;;;1.00;99.90;;;;;;5056927;28;20179;-68
2022/04/10 04:17:26;;;;;;;0.40;0.40;;;1.00;99.90;;;;;;5057145;28;20478;-66
2022/04/10 04:19:53;;;;;;;0.30;0.30;;;1.00;99.90;;;;;;5056981;28;20409;-68
2022/04/10 04:22:19;;;;;;;0.30;0.30;;;0.90;99.90;;;;;;5056725;28;20183;-67
2022/04/10 04:24:45;;;;;;;0.33;0.33;;;1.00;99.90;;;;;;5057008;28;20217;-68
2022/04/10 04:27:11;;;;;;;0.30;0.30;;;1.00;99.90;;;;;;5055576;28;20432;-67
2022/04/10 04:29:36;;;;;;;0.30;0.30;;;1.00;99.90;;;;;;5056740;28;20406;-67
2022/04/10 04:32:03;;;;;;;0.40;0.40;;;1.00;99.90;;;;;;5056600;28;20392;-68
2022/04/10 04:34:28;;;;;;;0.40;0.40;;;0.90;99.90;;;;;;5056897;28;20576;-67
2022/04/10 04:36:54;;;;;;;0.30;0.30;;;1.00;99.90;;;;;;5056706;28;20194;-68
2022/04/10 04:39:20;;;;;;;0.40;0.40;;;0.90;99.90;;;;;;5056744;28;20483;-68
2022/04/10 04:41:46;;;;;;;0.37;0.37;;;1.00;99.90;;;;;;5056631;28;20174;-67
2022/04/10 04:44:11;;;;;;;0.40;0.40;;;0.90;99.90;;;;;;5056607;28;20197;-67
2022/04/10 04:46:37;;;;;;;0.30;0.30;;;0.80;99.90;;;;;;5056370;28;20417;-67
2022/04/10 04:49:04;;;;;;;0.40;0.40;;;0.80;99.90;;;;;;5056491;28;20249;-67
2022/04/10 04:51:34;;;;;;;0.40;0.40;;;0.80;99.90;;;;;;5056304;28;20401;-67
2022/04/10 04:54:01;;;;;;;0.30;0.30;;;0.80;99.90;;;;;;5055200;28;20281;-67
2022/04/10 04:56:26;;;;;;;0.40;0.40;;;0.80;99.90;;;;;;5056212;28;20193;-67
2022/04/10 04:58:52;;;;;;;0.30;0.30;;;0.70;99.90;;;;;;5056465;28;20174;-67
2022/04/10 05:01:18;;;;;;;0.30;0.30;;;0.80;99.90;;;;;;5056160;28;20171;-67
2022/04/10 05:03:44;;;;;;;0.40;0.40;;;0.90;99.90;;;;;;5056205;28;20762;-67
2022/04/10 05:06:09;;;;;;;0.30;0.30;;;0.90;99.90;;;;;;5055984;28;20175;-67
2022/04/10 05:08:35;;;;;;;0.30;0.30;;;0.90;99.90;;;;;;5055874;28;20178;-67
2022/04/10 05:11:02;;;;;;;0.40;0.40;;;0.90;99.90;;;;;;5055904;28;20158;-68
2022/04/10 05:13:28;;;;;;;0.30;0.30;;;1.00;99.90;;;;;;5056142;28;20164;-67
2022/04/10 05:15:54;;;;;;;0.40;0.40;;;1.00;99.90;;;;;;5055974;28;20224;-67
2022/04/10 05:18:19;;;;;;;0.30;0.30;;;1.00;99.90;;;;;;5055869;28;20656;-68
2022/04/10 05:20:47;;;;;;;0.30;0.30;;;1.00;99.90;;;;;;5055722;28;20780;-67
2022/04/10 05:23:17;;;;;;;0.30;0.30;;;1.00;99.90;;;;;;5055800;28;20186;-68
2022/04/10 05:25:43;;;;;;;0.30;0.30;;;1.10;99.90;;;;;;5054846;28;20225;-67
2022/04/10 05:28:09;;;;;;;0.40;0.40;;;1.10;99.90;;;;;;5055661;28;20187;-67
2022/04/10 05:30:35;;;;;;;0.30;0.30;;;1.10;99.90;;;;;;5055602;28;20415;-67
2022/04/10 05:33:00;;;;;;;0.30;0.30;;;1.10;99.90;;;;;;5055716;28;20505;-67
2022/04/10 05:35:26;;;;;;;0.40;0.40;;;1.00;99.90;;;;;;5055704;28;20250;-67
2022/04/10 05:37:52;;;;;;;0.30;0.30;;;1.10;99.90;;;;;;5055421;28;20206;-67
2022/04/10 05:40:17;;;;;;;0.30;0.30;;;1.10;99.90;;;;;;5053951;28;20607;-68
2022/04/10 05:42:44;;;;;;;0.40;0.40;;;1.20;99.90;;;;;;5055385;28;20253;-67
2022/04/10 05:45:10;;;;;;;0.30;0.30;;;1.20;99.90;;;;;;5054011;28;20207;-67
2022/04/10 05:47:38;;;;;;;0.30;0.30;;;1.30;99.90;;;;;;5055253;28;20202;-67
2022/04/10 05:50:05;;;;;;;0.38;0.38;;;1.40;99.90;;;;;;5053790;28;20266;-68
2022/04/10 05:52:30;;;;;;;0.40;0.40;;;1.30;99.90;;;;;;5055306;28;20178;-67
2022/04/10 05:54:59;;;;;;;0.37;0.37;;;1.50;99.90;;;;;;5054019;28;20180;-67
2022/04/10 05:57:25;;;;;;;0.40;0.40;;;2.10;99.90;;;;;;5055014;28;20189;-68
2022/04/10 05:59:51;;;;;;;0.40;0.40;;;3.00;99.90;;;;;;5054908;28;20516;-67
2022/04/10 06:02:17;;;;;;;0.40;0.40;;;4.40;99.90;;;;;;5055177;28;20220;-68
2022/04/10 06:04:42;;;;;;;0.40;0.40;;;5.60;99.90;;;;;;5055104;28;20186;-67
2022/04/10 06:07:08;;;;;;;0.50;0.50;;;6.50;99.00;;;;;;5055119;28;20189;-68
2022/04/10 06:09:34;;;;;;;0.37;0.37;;;6.90;95.10;;;;;;5053646;28;20267;-68
2022/04/10 06:11:59;;;;;;;0.30;0.30;;;7.00;93.50;;;;;;5054725;28;20204;-68
2022/04/10 06:14:25;;;;;;;0.40;0.40;;;6.80;91.50;;;;;;5055094;28;20244;-67
2022/04/10 06:16:51;;;;;;;0.40;0.40;;;6.70;91.20;;;;;;5054734;28;20532;-68
2022/04/10 06:19:18;;;;;;;0.93;0.93;;;6.90;91.30;;;;;;5054807;28;20200;-68
2022/04/10 06:21:44;;;;;;;0.50;0.50;;;7.00;90.70;;;;;;5054635;28;20182;-68
2022/04/10 06:24:10;;;;;;;0.30;0.30;;;7.30;90.20;;;;;;5054802;28;20658;-68
2022/04/10 06:26:35;;;;;;;0.40;0.40;;;7.40;89.70;;;;;;5054573;28;20198;-68
2022/04/10 06:29:01;;;;;;;0.30;0.30;;;7.40;88.00;;;;;;5054531;28;20214;-68
2022/04/10 06:31:27;;;;;;;0.30;0.30;;;7.40;88.30;;;;;;5054460;28;20249;-68
2022/04/10 06:33:54;;;;;;;0.30;0.30;;;7.40;87.70;;;;;;5054568;28;20420;-68
2022/04/10 06:36:20;;;;;;;0.30;0.30;;;7.30;86.00;;;;;;5054433;28;20283;-67
2022/04/10 06:38:45;;;;;;;0.30;0.30;;;7.10;86.70;;;;;;5054332;28;20201;-68
2022/04/10 06:41:11;;;;;;;0.40;0.40;;;6.80;87.70;;;;;;5054135;28;20404;-67
2022/04/10 06:43:37;;;;;;;0.30;0.30;;;6.60;89.00;;;;;;5052880;28;20958;-67
2022/04/10 06:46:04;;;;;;;0.30;0.30;;;6.70;89.30;;;;;;5054159;28;20224;-68
2022/04/10 06:48:30;;;;;;;0.30;0.30;;;6.90;90.00;;;;;;5054198;28;20166;-67
2022/04/10 06:50:56;;;;;;;0.30;0.30;;;7.50;90.30;;;;;;5053963;28;20523;-67
2022/04/10 06:53:22;;;;;;;0.40;0.40;;;8.40;88.00;;;;;;5054001;28;20505;-69
2022/04/10 06:55:47;;;;;;;0.40;0.40;;;9.30;86.10;;;;;;5054050;28;20220;-68
2022/04/10 06:58:13;;;;;;;0.40;0.40;;;10.60;82.40;;;;;;5053954;28;20580;-68
2022/04/10 07:00:40;;;;;;;0.30;0.30;;;11.80;77.30;;;;;;5053854;28;20170;-68
2022/04/10 07:03:06;;;;;;;0.30;0.30;;;12.90;72.50;;;;;;5054122;28;20170;-69
2022/04/10 07:05:31;;;;;;;0.30;0.30;;;14.00;67.30;;;;;;5053939;28;20472;-69
2022/04/10 07:07:57;;;;;;;0.30;0.30;;;15.20;61.20;;;;;;5053772;28;20186;-69
2022/04/10 07:10:23;;;;;;;0.30;0.30;;;16.40;58.50;;;;;;5053715;28;20173;-68
2022/04/10 07:12:48;;;;;;;0.30;0.30;;;17.70;54.90;;;;;;5053955;28;20216;-69
2022/04/10 07:15:14;;;;;;;0.30;0.30;;;18.90;51.20;;;;;;5052644;28;20181;-69
2022/04/10 07:17:39;;;;;;;0.87;0.87;;;20.00;46.80;;;;;;5053805;28;20198;-69
2022/04/10 07:20:06;;;;;;;0.30;0.30;;;20.80;43.90;;;;;;5053545;28;20170;-69
2022/04/10 07:25:17;;;;;;;0.30;0.30;;;22.70;40.70;;;;;;5053648;28;20447;-69
2022/04/10 07:27:42;;;;;;;1.40;0.80;;;23.50;39.60;;;;;;5053540;28;20429;-69
2022/04/10 07:30:08;;;;;;;1.00;1.00;;;23.90;37.10;;;;;;5053288;28;20212;-69
2022/04/10 07:32:34;;;;;;;0.30;0.30;;;24.20;37.20;;;;;;5052522;28;20174;-69
2022/04/10 07:35:06;;;;;;;0.40;0.40;;;23.70;35.60;;;;;;5053696;28;20174;-69
2022/04/10 07:37:32;;;;;;;0.30;0.30;;;23.60;35.90;;;;;;5052101;28;20692;-69
2022/04/10 07:39:58;;;;;;;1.00;1.00;;;23.10;35.80;;;;;;5053324;28;20496;-69
2022/04/10 07:42:24;;;;;;;0.37;0.37;;;22.10;36.70;;;;;;5053365;28;20404;-68
2022/04/10 07:44:54;;;;;;;0.40;0.40;;;21.10;38.10;;;;;;5052461;28;20800;-68
2022/04/10 07:47:26;;;;;;;0.40;0.40;;;20.90;38.60;;;;;;5053135;28;20229;-68
2022/04/10 07:49:55;;;;;;;0.40;0.40;;;19.20;39.10;;;;;;5052481;28;20474;-68
2022/04/10 07:52:22;;;;;;;0.33;0.33;;;17.30;42.00;;;;;;5051693;28;20818;-69
2022/04/10 07:54:48;;;;;;;0.30;0.30;;;16.70;43.80;;;;;;5053562;28;20728;-69
2022/04/10 07:57:14;;;;;;;0.70;0.70;;;16.10;44.50;;;;;;5051743;28;20431;-65
2022/04/10 07:59:39;;;;;;;0.30;0.30;;;15.80;47.50;;;;;;5052506;28;20385;-65
2022/04/10 08:02:06;;;;;;;0.30;0.30;;;16.90;49.80;;;;;;5052990;28;20641;-65
2022/04/10 08:04:31;;;;;;;0.47;0.47;;;17.50;48.00;;;;;;5052048;28;20203;-65
2022/04/10 08:06:57;;;;;;;0.40;0.40;;;17.70;46.70;;;;;;5052295;28;20478;-65
2022/04/10 08:09:23;;;;;;;0.30;0.30;;;17.60;46.00;;;;;;5052782;28;20176;-64
2022/04/10 08:11:50;;;;;;;0.70;0.70;;;17.30;45.40;;;;;;5053235;28;20677;-65
2022/04/10 08:14:16;;;;;;;0.40;0.40;;;17.00;45.70;;;;;;5053095;28;20244;-64
2022/04/10 08:16:41;;;;;;;0.30;0.30;;;16.80;46.20;;;;;;5051066;28;20441;-65
2022/04/10 08:19:07;;;;;;;0.30;0.30;;;16.60;46.30;;;;;;5053095;28;20407;-65
2022/04/10 08:21:33;;;;;;;0.30;0.30;;;16.50;46.50;;;;;;5051886;28;20181;-66
2022/04/10 08:23:58;;;;;;;0.40;0.40;;;16.50;46.70;;;;;;5052173;28;20455;-64
2022/04/10 08:26:24;;;;;;;0.30;0.30;;;16.40;46.80;;;;;;5052673;28;20239;-65
2022/04/10 08:28:50;;;;;;;1.27;0.70;;;16.30;46.60;;;;;;5051748;28;20166;-65
2022/04/10 08:31:16;;;;;;;0.30;0.30;;;16.30;46.60;;;;;;5052638;28;20174;-64
2022/04/10 08:33:42;;;;;;;0.47;0.40;;;16.20;47.30;;;;;;5052986;28;20177;-65
2022/04/10 08:36:08;;;;;;;0.90;0.87;;;16.30;47.00;;;;;;5053112;28;20401;-65
2022/04/10 08:38:34;;;;;;;0.70;0.70;;;16.20;46.80;;;;;;5052935;28;20875;-65
2022/04/10 08:41:01;;;;;;;0.30;0.30;;;16.30;47.00;;;;;;5052763;28;20476;-65
2022/04/10 08:43:28;;;;;;;0.30;0.30;;;16.30;46.80;;;;;;5053118;28;20429;-65
2022/04/10 08:45:57;;;;;;;0.30;0.30;;;16.40;46.80;;;;;;5053196;28;20820;-65
2022/04/10 08:48:27;;;;;;;0.30;0.30;;;16.40;46.70;;;;;;5052796;28;20424;-65
2022/04/10 08:50:57;;;;;;;0.30;0.30;;;16.40;46.40;;;;;;5052738;28;20396;-65
2022/04/10 08:53:26;;;;;;;0.50;0.50;;;16.30;46.80;;;;;;5051980;28;20413;-65
2022/04/10 08:55:52;;;;;;;6.63;2.70;;;16.30;46.60;;;;;;5051604;28;20408;-65
2022/04/10 08:58:21;;;;;;;0.50;0.50;;;16.10;47.00;;;;;;5050058;28;20921;-65
2022/04/10 09:00:47;;;;;;;0.30;0.30;;;16.10;46.80;;;;;;5054307;28;20409;-65
2022/04/10 09:03:12;;;;;;;0.40;0.40;;;16.10;47.10;;;;;;5056168;28;20426;-65
2022/04/10 09:05:40;;;;;;;0.40;0.40;;;16.00;47.20;;;;;;5056321;28;20198;-65
2022/04/10 09:08:07;;;;;;;0.30;0.30;;;16.00;47.20;;;;;;5056153;28;20216;-65
2022/04/10 09:10:57;;;;;;;0.30;0.30;;;16.00;47.20;;;;;;5056067;28;20423;-65
2022/04/10 09:13:26;;;;;;;0.40;0.40;;;15.60;47.30;;;;;;5050219;28;20474;-65
2022/04/10 09:16:06;;;;;;;0.30;0.30;;;15.50;48.00;;;;;;5056143;28;20415;-65
2022/04/10 09:18:45;;;;;;;0.30;0.30;;;15.50;47.70;;;;;;5056168;28;20934;-65
2022/04/10 09:21:11;;;;;;;0.30;0.30;;;15.40;47.80;;;;;;5055808;28;20411;-65
2022/04/10 09:23:37;;;;;;;0.80;0.80;;;15.30;48.20;;;;;;5055738;28;20520;-65
2022/04/10 09:26:02;;;;;;;0.30;0.30;;;15.20;47.90;;;;;;5055771;28;20507;-65
2022/04/10 09:28:45;;;;;;;0.40;0.40;;;14.90;47.60;;;;;;5055807;28;20170;-65
2022/04/10 09:31:33;;;;;;;0.30;0.30;;;14.90;48.00;;;;;;5055654;28;20256;-65
2022/04/10 09:34:13;;;;;;;0.40;0.40;;;14.80;48.40;;;;;;5055915;28;20410;-65
2022/04/10 09:36:41;;;;;;;0.80;0.80;;;14.80;48.70;;;;;;5055808;28;20923;-69
2022/04/10 09:39:11;;;;;;;0.30;0.30;;;14.70;48.50;;;;;;5055603;28;20478;-68
2022/04/10 09:41:39;;;;;;;0.63;0.60;;;15.10;48.10;;;;;;5055465;28;20733;-69
2022/04/10 09:44:23;;;;;;;0.30;0.30;;;15.10;46.30;;;;;;5055462;28;20444;-68
2022/04/10 09:47:06;;;;;;;0.30;0.30;;;14.50;46.60;;;;;;5055536;28;20424;-68
2022/04/10 09:49:32;;;;;;;0.40;0.40;;;14.30;47.00;;;;;;5055400;28;20441;-68
2022/04/10 09:52:02;;;;;;;0.50;0.50;;;13.90;47.30;;;;;;5055297;28;20433;-68
2022/04/10 09:54:42;;;;;;;0.40;0.40;;;13.10;48.80;;;;;;5055498;28;20766;-69
2022/04/10 09:57:16;;;;;;;0.40;0.40;;;12.00;50.80;;;;;;5055450;28;20432;-68
2022/04/10 09:59:43;;;;;;;0.30;0.30;;;12.90;51.70;;;;;;5055387;28;20809;-68
2022/04/10 10:02:10;;;;;;;0.30;0.30;;;13.80;49.90;;;;;;5055037;28;20405;-68
2022/04/10 10:04:37;;;;;;;0.40;0.40;;;14.00;48.10;;;;;;5055173;28;20479;-68
2022/04/10 10:07:10;;;;;;;0.40;0.40;;;14.20;47.00;;;;;;5055127;28;20429;-69
2022/04/10 10:09:36;;;;;;;0.87;0.87;;;13.70;47.60;;;;;;5054944;28;20392;-68
2022/04/10 10:12:04;;;;;;;0.40;0.40;;;12.70;49.30;;;;;;5054335;28;20404;-68
2022/04/10 10:14:31;;;;;;;0.30;0.30;;;12.80;50.20;;;;;;5053690;28;20459;-68
2022/04/10 10:16:59;;;;;;;0.30;0.30;;;13.30;50.40;;;;;;5054772;28;20908;-68
2022/04/10 10:19:25;;;;;;;0.40;0.40;;;12.90;49.30;;;;;;5054695;28;20420;-68
2022/04/10 10:21:52;;;;;;;0.30;0.30;;;12.00;49.70;;;;;;5054409;28;20416;-67
2022/04/10 10:24:19;;;;;;;0.30;0.30;;;10.90;50.60;;;;;;5053345;28;20453;-68
2022/04/10 10:26:59;;;;;;;0.40;0.40;;;10.30;51.90;;;;;;5054419;28;20190;-69
2022/04/10 10:30:07;;;;;;;0.30;0.30;;;9.90;54.30;;;;;;5054580;28;20537;-68
2022/04/10 10:32:38;;;;;;;0.30;0.30;;;9.40;55.90;;;;;;5038530;28;20260;-68
2022/04/10 10:35:04;;;;;;;0.30;0.30;;;9.00;55.70;;;;;;5054546;28;20216;-68
2022/04/10 10:37:50;;;;;;;0.30;0.30;;;9.30;56.10;;;;;;5054572;28;20220;-68
2022/04/10 10:40:18;;;;;;;0.30;0.30;;;9.50;55.80;;;;;;5054308;28;20518;-67
2022/04/10 10:42:45;;;;;;;0.38;0.38;;;9.50;57.40;;;;;;5054336;28;20503;-68
2022/04/10 10:45:30;;;;;;;0.40;0.40;;;9.30;54.00;;;;;;5054054;28;20194;-68
2022/04/10 10:48:33;;;;;;;0.30;0.30;;;9.50;53.70;;;;;;5053978;28;20260;-69
2022/04/10 10:51:09;;;;;;;0.30;0.30;;;10.00;53.90;;;;;;5049508;28;20638;-69
2022/04/10 10:53:57;;;;;;;0.30;0.30;;;11.10;54.50;;;;;;5053041;28;20227;-69
2022/04/10 10:56:38;;;;;;;0.30;0.30;;;12.20;46.50;;;;;;5054154;28;20202;-68
2022/04/10 10:59:24;;;;;;;0.30;0.30;;;12.30;42.70;;;;;;5054031;28;20150;-68
2022/04/10 11:02:01;;;;;;;0.30;0.30;;;11.80;44.00;;;;;;5053885;28;20166;-68
2022/04/10 11:04:30;;;;;;;0.30;0.30;;;11.40;44.60;;;;;;5054050;28;20237;-68
2022/04/10 11:07:13;;;;;;;0.30;0.30;;;10.70;47.10;;;;;;5052533;28;20700;-68
2022/04/10 11:09:59;;;;;;;0.30;0.30;;;10.30;49.60;;;;;;5052455;28;20181;-68
2022/04/10 11:12:32;;;;;;;0.30;0.30;;;9.80;52.40;;;;;;5053945;28;20163;-68
2022/04/10 11:14:59;;;;;;;0.38;0.38;;;9.70;51.50;;;;;;5053725;28;20311;-68
2022/04/10 11:17:30;;;;;;;0.40;0.40;;;9.60;52.80;;;;;;5053628;28;20201;-68
2022/04/10 11:20:01;;;;;;;1.52;1.52;;;9.70;52.40;;;;;;5053464;28;20178;-69
2022/04/10 11:22:33;;;;;;;0.30;0.30;;;9.70;52.00;;;;;;5051566;28;20194;-69
2022/04/10 11:25:07;;;;;;;0.30;0.30;;;9.90;51.40;;;;;;5053429;28;20557;-68
2022/04/10 11:27:55;;;;;;;0.30;0.30;;;9.90;51.20;;;;;;5053645;28;20268;-68
2022/04/10 11:30:32;;;;;;;0.30;0.30;;;10.00;49.80;;;;;;5053353;28;20171;-68
2022/04/10 11:32:57;;;;;;;0.30;0.30;;;10.20;49.70;;;;;;5053425;28;20583;-68
2022/04/10 11:35:26;;;;;;;0.40;0.40;;;10.30;48.40;;;;;;5053416;28;20218;-67
2022/04/10 11:37:54;;;;;;;0.30;0.30;;;10.00;47.40;;;;;;5053440;28;20735;-68
2022/04/10 11:40:27;;;;;;;0.30;0.30;;;10.10;49.00;;;;;;5053229;28;20178;-68
2022/04/10 11:42:54;;;;;;;0.30;0.30;;;10.30;48.20;;;;;;5053546;28;20249;-68
2022/04/10 11:45:28;;;;;;;0.30;0.30;;;10.50;48.80;;;;;;5053284;28;20212;-68
2022/04/10 11:47:54;;;;;;;0.30;0.30;;;10.80;49.00;;;;;;5053298;28;20186;-67
2022/04/10 11:50:25;;;;;;;0.30;0.30;;;10.90;49.80;;;;;;5053405;28;20253;-69
2022/04/10 11:53:05;;;;;;;0.30;0.30;;;10.40;49.20;;;;;;5052164;28;20177;-69
2022/04/10 11:55:36;;;;;;;0.30;0.30;;;10.00;50.90;;;;;;5053393;28;20215;-68
2022/04/10 11:58:16;;;;;;;0.30;0.30;;;10.00;51.00;;;;;;5053417;28;20192;-68
2022/04/10 12:00:59;;;;;;;0.30;0.30;;;9.90;50.60;;;;;;5053054;28;20177;-67
2022/04/10 12:03:29;;;;;;;0.30;0.30;;;9.80;50.80;;;;;;5053495;28;20169;-68
2022/04/10 12:05:55;;;;;;;0.30;0.30;;;9.90;51.30;;;;;;5053054;28;20670;-68
2022/04/10 12:08:22;;;;;;;0.30;0.30;;;10.10;50.70;;;;;;5053032;28;20208;-68
2022/04/10 12:10:59;;;;;;;0.30;0.30;;;10.30;50.80;;;;;;5053004;28;20163;-69
2022/04/10 12:13:30;;;;;;;0.30;0.30;;;10.30;48.50;;;;;;5053370;28;20166;-68
2022/04/10 12:16:13;;;;;;;0.30;0.30;;;10.20;48.20;;;;;;5053160;28;20188;-69
2022/04/10 12:18:53;;;;;;;0.30;0.30;;;9.90;48.30;;;;;;5053029;28;20253;-68
2022/04/10 12:21:20;;;;;;;0.30;0.30;;;9.80;50.10;;;;;;5052858;28;20182;-68
2022/04/10 12:23:46;;;;;;;0.30;0.30;;;9.80;49.10;;;;;;5052936;28;20236;-69
2022/04/10 12:26:13;;;;;;;0.30;0.30;;;9.60;46.20;;;;;;5053036;28;20162;-68
2022/04/10 12:28:39;;;;;;;0.30;0.30;;;9.60;45.30;;;;;;5052918;28;20162;-68
2022/04/10 12:31:05;;;;;;;0.30;0.30;;;9.60;45.10;;;;;;5052729;28;20170;-68
2022/04/10 12:33:32;;;;;;;0.30;0.30;;;9.40;44.00;;;;;;5053933;28;20167;-68
2022/04/10 12:35:58;;;;;;;0.30;0.30;;;9.50;45.80;;;;;;5056801;28;20177;-68
2022/04/10 12:38:29;;;;;;;0.30;0.30;;;9.40;44.40;;;;;;5056606;28;20189;-67
2022/04/10 12:41:04;;;;;;;0.35;0.35;;;9.30;43.80;;;;;;5056665;28;20166;-69
2022/04/10 12:43:30;;;;;;;0.60;0.60;;;9.20;44.30;;;;;;5056584;28;20626;-69
2022/04/10 12:46:10;;;;;;;0.30;0.30;;;9.30;45.50;;;;;;5056562;28;20211;-68
2022/04/10 12:48:37;;;;;;;0.30;0.30;;;9.50;45.90;;;;;;5056660;28;20201;-67
2022/04/10 12:51:05;;;;;;;0.30;0.30;;;9.60;47.40;;;;;;5056316;28;20662;-68
2022/04/10 12:53:30;;;;;;;0.30;0.30;;;9.60;47.50;;;;;;5056606;28;20528;-68
2022/04/10 12:55:56;;;;;;;0.30;0.30;;;9.70;47.10;;;;;;5055285;28;20178;-68
2022/04/10 12:58:21;;;;;;;0.30;0.30;;;9.80;45.40;;;;;;5056252;28;20197;-68
2022/04/10 13:00:48;;;;;;;0.30;0.30;;;10.00;44.70;;;;;;5056050;28;20174;-68